Terminal Aerodrome Forecast
Issued by NWS Paducah, KY

Home | Current Version | Previous Version | Text Only | Print | Product List | Glossary On
Versions: 1 2 3 4 5 6 7 8 9 10 11 12 13 14 15 16 17 18 19
111
FTUS43 KPAH 142010 AAA
TAFPAH
TAF AMD
KPAH 142010Z 1420/1518 12009KT 5SM -FZRA BR SCT010 OVC035
      TEMPO 1420/1424 2SM -FZRA BR OVC010
     FM150100 VRB03KT 5SM BR OVC015
     FM150300 15004KT 3SM BR OVC010=

USA.gov is the U.S. government's official web portal to all federal, state and local government web resources and services.